createdAt,value
2023-04-15T00:00:13.114Z,-3.35
2023-04-15T00:02:19.909Z,-3.39
2023-04-15T00:04:24.530Z,-3.45
2023-04-15T00:06:27.894Z,-3.46
2023-04-15T00:08:31.237Z,-3.45
2023-04-15T00:10:34.230Z,-3.42
2023-04-15T00:12:37.367Z,-3.44
2023-04-15T00:14:40.299Z,-3.40
2023-04-15T00:16:43.161Z,-3.41
2023-04-15T00:18:46.131Z,-3.35
2023-04-15T00:20:48.919Z,-3.42
2023-04-15T00:22:51.611Z,-3.46
2023-04-15T00:24:54.488Z,-3.50
2023-04-15T00:26:58.344Z,-3.46
2023-04-15T00:29:01.290Z,-3.46
2023-04-15T00:31:04.610Z,-3.49
2023-04-15T00:33:08.221Z,-3.51
2023-04-15T00:35:11.096Z,-3.55
2023-04-15T00:37:13.928Z,-3.51
2023-04-15T00:39:16.672Z,-3.53
2023-04-15T00:41:19.588Z,-3.49
2023-04-15T00:43:22.355Z,-3.58
2023-04-15T00:45:28.439Z,-3.58
2023-04-15T00:47:33.965Z,-3.61
2023-04-15T00:49:36.727Z,-3.59
2023-04-15T00:51:39.929Z,-3.60
2023-04-15T00:53:43.950Z,-3.63
2023-04-15T00:55:46.849Z,-3.61
2023-04-15T00:57:50.177Z,-3.62
2023-04-15T00:59:54.119Z,-3.60
2023-04-15T01:01:57.700Z,-3.62
2023-04-15T01:04:00.697Z,-3.64
2023-04-15T01:06:04.372Z,-3.69
2023-04-15T01:08:07.793Z,-3.69
2023-04-15T01:10:10.796Z,-3.68
2023-04-15T01:12:15.653Z,-3.75
2023-04-15T01:14:18.467Z,-3.78
2023-04-15T01:16:22.523Z,-3.77
2023-04-15T01:18:25.595Z,-3.77
2023-04-15T01:20:30.090Z,-3.80
2023-04-15T01:22:34.720Z,-3.79
2023-04-15T01:24:37.848Z,-3.82
2023-04-15T01:26:43.041Z,-3.84
2023-04-15T01:28:46.869Z,-3.79
2023-04-15T01:30:49.555Z,-3.77
2023-04-15T01:32:52.719Z,-3.80
2023-04-15T01:35:13.979Z,-3.87
2023-04-15T01:37:24.111Z,-3.89
2023-04-15T01:39:26.783Z,-3.90
2023-04-15T01:41:29.604Z,-3.89
2023-04-15T01:43:33.491Z,-3.91
2023-04-15T01:45:37.808Z,-3.93
2023-04-15T01:47:41.781Z,-3.96
2023-04-15T01:49:45.864Z,-3.91
2023-04-15T01:51:49.847Z,-3.94
2023-04-15T01:53:53.987Z,-3.91
2023-04-15T01:55:58.051Z,-3.89
2023-04-15T01:58:02.011Z,-3.87
2023-04-15T02:00:11.828Z,-3.85
2023-04-15T02:02:16.581Z,-3.83
2023-04-15T02:04:20.695Z,-3.78
2023-04-15T02:06:24.724Z,-3.73
2023-04-15T02:08:28.947Z,-3.73
2023-04-15T02:10:32.942Z,-3.68
2023-04-15T02:12:37.004Z,-3.72
2023-04-15T02:14:40.942Z,-3.66
2023-04-15T02:16:44.905Z,-3.65
2023-04-15T02:18:48.932Z,-3.65
2023-04-15T02:20:53.388Z,-3.64
2023-04-15T02:22:57.448Z,-3.61
2023-04-15T02:25:01.500Z,-3.61
2023-04-15T02:27:05.419Z,-3.59
2023-04-15T02:29:09.308Z,-3.58
2023-04-15T02:31:13.401Z,-3.52
2023-04-15T02:33:17.716Z,-3.53
2023-04-15T02:35:21.717Z,-3.52
2023-04-15T02:37:28.066Z,-3.51
2023-04-15T02:39:32.077Z,-3.47
2023-04-15T02:41:36.864Z,-3.45
2023-04-15T02:43:40.873Z,-3.43
2023-04-15T02:45:46.400Z,-3.39
2023-04-15T02:47:51.055Z,-3.35
2023-04-15T02:49:54.947Z,-3.31
2023-04-15T02:52:00.253Z,-3.28
2023-04-15T02:54:04.385Z,-3.21
2023-04-15T02:56:08.617Z,-3.21
2023-04-15T02:58:12.584Z,-3.17
2023-04-15T03:00:16.643Z,-3.11
2023-04-15T03:02:20.792Z,-3.10
2023-04-15T03:04:24.842Z,-3.09
2023-04-15T03:06:29.726Z,-3.06
2023-04-15T03:08:33.760Z,-3.03
2023-04-15T03:10:37.772Z,-2.99
2023-04-15T03:12:41.681Z,-2.94
2023-04-15T03:14:45.752Z,-2.88
2023-04-15T03:16:50.849Z,-2.84
2023-04-15T03:18:54.887Z,-2.79
2023-04-15T03:20:58.816Z,-2.75
2023-04-15T03:23:02.847Z,-2.71
2023-04-15T03:25:07.232Z,-2.70
2023-04-15T03:27:11.134Z,-2.64
2023-04-15T03:29:15.065Z,-2.59
2023-04-15T03:31:19.236Z,-2.54
2023-04-15T03:33:23.220Z,-2.53
2023-04-15T03:35:27.229Z,-2.48
2023-04-15T03:37:31.363Z,-2.45
2023-04-15T03:39:35.948Z,-2.43
2023-04-15T03:41:39.879Z,-2.37
2023-04-15T03:43:43.850Z,-2.35
2023-04-15T03:45:47.831Z,-2.34
2023-04-15T03:47:51.957Z,-2.30
2023-04-15T03:49:55.959Z,-2.25
2023-04-15T03:52:00.206Z,-2.24
2023-04-15T03:54:04.326Z,-2.21
2023-04-15T03:56:08.386Z,-2.16
2023-04-15T03:58:13.158Z,-2.11
2023-04-15T04:00:17.247Z,-2.05
2023-04-15T04:02:21.333Z,-2.01
2023-04-15T04:04:25.424Z,-2.01
2023-04-15T04:06:29.492Z,-1.99
2023-04-15T04:08:33.616Z,-1.95
2023-04-15T04:10:37.618Z,-1.92
2023-04-15T04:12:41.679Z,-1.88
2023-04-15T04:14:45.924Z,-1.81
2023-04-15T04:16:49.813Z,-1.78
2023-04-15T04:18:53.804Z,-1.75
2023-04-15T04:20:57.838Z,-1.71
2023-04-15T04:23:01.756Z,-1.65
2023-04-15T04:25:06.627Z,-1.59
2023-04-15T04:27:10.975Z,-1.62
2023-04-15T04:29:14.941Z,-1.57
2023-04-15T04:31:19.416Z,-1.51
2023-04-15T04:33:23.377Z,-1.50
2023-04-15T04:35:27.711Z,-1.49
2023-04-15T04:37:31.749Z,-1.41
2023-04-15T04:39:36.172Z,-1.38
2023-04-15T04:41:40.113Z,-1.34
2023-04-15T04:43:44.112Z,-1.24
2023-04-15T04:45:48.037Z,-1.14
2023-04-15T04:47:52.030Z,-1.13
2023-04-15T04:49:56.136Z,-1.05
2023-04-15T04:52:00.706Z,-1.02
2023-04-15T04:54:04.699Z,-0.98
2023-04-15T04:56:08.720Z,-0.95
2023-04-15T04:58:12.802Z,-0.86
2023-04-15T05:00:16.833Z,-0.78
2023-04-15T05:02:20.937Z,-0.74
2023-04-15T05:04:25.054Z,-0.66
2023-04-15T05:06:30.849Z,-0.60
2023-04-15T05:08:35.273Z,-0.55
2023-04-15T05:10:39.262Z,-0.52
2023-04-15T05:12:43.397Z,-0.45
2023-04-15T05:14:47.447Z,-0.40
2023-04-15T05:16:51.372Z,-0.37
2023-04-15T05:18:55.382Z,-0.30
2023-04-15T05:21:00.000Z,-0.28
2023-04-15T05:23:04.289Z,-0.26
2023-04-15T05:25:09.286Z,-0.24
2023-04-15T05:27:14.059Z,-0.18
2023-04-15T05:29:18.092Z,-0.11
2023-04-15T05:31:22.234Z,-0.06
2023-04-15T05:33:26.720Z,-0.02
2023-04-15T05:35:31.227Z,0.09
2023-04-15T05:37:35.764Z,0.12
2023-04-15T05:39:39.708Z,0.11
2023-04-15T05:41:43.562Z,0.23
2023-04-15T05:43:47.454Z,0.27
2023-04-15T05:45:51.541Z,0.34
2023-04-15T05:47:55.502Z,0.43
2023-04-15T05:49:59.640Z,0.47
2023-04-15T05:52:03.845Z,0.56
2023-04-15T05:54:08.046Z,0.62
2023-04-15T05:56:12.256Z,0.69
2023-04-15T05:58:16.395Z,0.76
2023-04-15T06:00:20.350Z,0.84
2023-04-15T06:02:24.405Z,0.86
2023-04-15T06:04:28.768Z,0.93
2023-04-15T06:06:32.851Z,1.01
2023-04-15T06:08:36.873Z,1.10
2023-04-15T06:10:40.906Z,1.18
2023-04-15T06:12:44.907Z,1.26
2023-04-15T06:14:48.833Z,1.31
2023-04-15T06:16:52.874Z,1.35
2023-04-15T06:18:56.747Z,1.37
2023-04-15T06:21:01.174Z,1.35
2023-04-15T06:23:05.075Z,1.39
2023-04-15T06:25:09.521Z,1.49
2023-04-15T06:27:13.501Z,1.59
2023-04-15T06:29:17.408Z,1.65
2023-04-15T06:31:21.595Z,1.69
2023-04-15T06:33:25.750Z,1.69
2023-04-15T06:35:29.593Z,1.81
2023-04-15T06:37:33.538Z,1.87
2023-04-15T06:39:37.955Z,1.94
2023-04-15T06:41:41.932Z,2.03
2023-04-15T06:43:45.979Z,2.08
2023-04-15T06:45:50.017Z,2.10
2023-04-15T06:47:54.036Z,2.22
2023-04-15T06:49:58.068Z,2.34
2023-04-15T06:52:02.526Z,2.36
2023-04-15T06:54:06.481Z,2.41
2023-04-15T06:56:11.195Z,2.41
2023-04-15T06:58:15.050Z,2.45
2023-04-15T07:00:19.583Z,2.48
2023-04-15T07:02:23.888Z,2.51
2023-04-15T07:04:30.780Z,2.55
2023-04-15T07:06:35.820Z,2.56
2023-04-15T07:08:39.658Z,2.72
2023-04-15T07:10:43.485Z,2.88
2023-04-15T07:12:49.157Z,2.91
2023-04-15T07:14:53.040Z,2.94
2023-04-15T07:16:57.790Z,3.00
2023-04-15T07:19:01.952Z,3.09
2023-04-15T07:21:06.142Z,3.12
2023-04-15T07:23:10.025Z,3.17
2023-04-15T07:25:13.940Z,3.30
2023-04-15T07:27:18.237Z,3.26
2023-04-15T07:29:22.424Z,3.13
2023-04-15T07:31:26.453Z,3.13
2023-04-15T07:33:30.433Z,3.25
2023-04-15T07:35:34.445Z,3.42
2023-04-15T07:37:38.306Z,3.59
2023-04-15T07:39:43.092Z,3.67
2023-04-15T07:41:47.038Z,3.74
2023-04-15T07:43:50.914Z,3.73
2023-04-15T07:45:55.629Z,3.68
2023-04-15T07:47:59.640Z,3.72
2023-04-15T07:50:03.725Z,3.69
2023-04-15T07:52:07.651Z,3.72
2023-04-15T07:54:11.526Z,3.74
2023-04-15T07:56:15.519Z,3.65
2023-04-15T07:58:19.526Z,3.57
2023-04-15T08:00:23.873Z,3.70
2023-04-15T08:02:28.073Z,3.80
2023-04-15T08:04:32.667Z,3.86
2023-04-15T08:06:40.101Z,4.03
2023-04-15T08:08:44.248Z,4.16
2023-04-15T08:10:49.275Z,4.23
2023-04-15T08:12:55.141Z,4.25
2023-04-15T08:14:59.493Z,4.35
2023-04-15T08:17:04.433Z,4.41
2023-04-15T08:19:08.367Z,4.48
2023-04-15T08:21:12.354Z,4.51
2023-04-15T08:23:16.279Z,4.57
2023-04-15T08:25:20.438Z,4.69
2023-04-15T08:27:24.353Z,4.80
2023-04-15T08:29:28.684Z,4.83
2023-04-15T08:31:32.712Z,4.79
2023-04-15T08:33:37.386Z,4.84
2023-04-15T08:35:41.649Z,4.88
2023-04-15T08:37:45.602Z,4.96
2023-04-15T08:39:49.400Z,4.98
2023-04-15T08:41:58.950Z,5.05
2023-04-15T08:44:05.446Z,5.16
2023-04-15T08:46:11.925Z,5.18
2023-04-15T08:48:19.188Z,5.23
2023-04-15T08:50:24.283Z,5.20
2023-04-15T08:52:31.485Z,5.20
2023-04-15T08:54:36.696Z,5.32
2023-04-15T08:56:40.937Z,5.41
2023-04-15T08:58:45.995Z,5.50
2023-04-15T09:00:49.932Z,5.55
2023-04-15T09:02:55.238Z,5.67
2023-04-15T09:04:59.203Z,5.75
2023-04-15T09:07:03.049Z,5.59
2023-04-15T09:09:07.212Z,5.59
2023-04-15T09:11:11.433Z,5.72
2023-04-15T09:13:15.344Z,5.85
2023-04-15T09:15:19.380Z,6.04
2023-04-15T09:17:24.912Z,6.11
2023-04-15T09:19:29.324Z,6.10
2023-04-15T09:21:34.062Z,6.25
2023-04-15T09:23:40.086Z,6.32
2023-04-15T09:25:44.047Z,6.37
2023-04-15T09:28:02.342Z,6.42
2023-04-15T09:30:09.510Z,6.07
2023-04-15T09:32:16.238Z,6.13
2023-04-15T09:34:21.733Z,6.31
2023-04-15T09:36:26.453Z,6.27
2023-04-15T09:38:31.247Z,6.01
2023-04-15T09:40:38.446Z,6.27
2023-04-15T09:42:57.768Z,6.21
2023-04-15T09:45:15.836Z,6.30
2023-04-15T09:47:29.685Z,6.47
2023-04-15T09:49:33.614Z,6.62
2023-04-15T09:51:37.881Z,6.64
2023-04-15T09:53:41.795Z,6.63
2023-04-15T09:55:56.519Z,6.52
2023-04-15T09:58:00.427Z,6.50
2023-04-15T10:00:06.716Z,6.49
2023-04-15T10:02:13.546Z,6.26
2023-04-15T10:04:18.317Z,6.51
2023-04-15T10:06:27.122Z,6.70
2023-04-15T10:08:33.925Z,6.83
2023-04-15T10:10:38.090Z,7.05
2023-04-15T10:12:43.258Z,7.12
2023-04-15T10:14:53.628Z,7.04
2023-04-15T10:17:02.729Z,7.01
2023-04-15T10:19:08.878Z,6.71
2023-04-15T10:21:18.928Z,6.78
2023-04-15T10:23:24.662Z,7.05
2023-04-15T10:25:29.804Z,7.21
2023-04-15T10:27:34.090Z,7.25
2023-04-15T10:29:38.470Z,7.11
2023-04-15T10:31:42.989Z,7.26
2023-04-15T10:33:48.979Z,7.40
2023-04-15T10:35:54.829Z,7.38
2023-04-15T10:37:59.467Z,7.35
2023-04-15T10:40:31.899Z,7.20
2023-04-15T10:42:36.028Z,7.43
2023-04-15T10:44:44.821Z,7.67
2023-04-15T10:46:48.892Z,7.71
2023-04-15T10:48:53.980Z,8.05
2023-04-15T10:50:58.402Z,8.23
2023-04-15T10:53:05.932Z,8.38
2023-04-15T10:55:22.145Z,8.44
2023-04-15T10:57:34.450Z,8.61
2023-04-15T10:59:59.894Z,8.75
2023-04-15T11:02:06.219Z,8.95
2023-04-15T11:04:10.970Z,8.85
2023-04-15T11:06:15.218Z,8.94
2023-04-15T11:08:19.694Z,9.02
2023-04-15T11:10:26.424Z,9.20
2023-04-15T11:12:37.000Z,9.35
2023-04-15T11:14:43.484Z,9.52
2023-04-15T11:16:48.354Z,9.46
2023-04-15T11:18:56.161Z,9.13
2023-04-15T11:21:03.616Z,8.97
2023-04-15T11:23:15.370Z,9.13
2023-04-15T11:25:27.007Z,9.20
2023-04-15T11:27:31.301Z,9.18
2023-04-15T11:29:35.146Z,9.07
2023-04-15T11:31:39.160Z,9.11
2023-04-15T11:34:02.407Z,9.32
2023-04-15T11:36:06.724Z,9.32
2023-04-15T11:38:13.131Z,9.47
2023-04-15T11:40:22.603Z,9.28
2023-04-15T11:42:33.689Z,9.15
2023-04-15T11:44:46.953Z,9.54
2023-04-15T11:46:50.967Z,9.78
2023-04-15T11:48:55.130Z,10.02
2023-04-15T11:51:08.333Z,10.42
2023-04-15T11:53:13.175Z,10.45
2023-04-15T11:55:16.136Z,10.66
2023-04-15T11:57:18.880Z,10.85
2023-04-15T11:59:21.880Z,10.64
2023-04-15T12:01:40.016Z,10.81
2023-04-15T12:03:46.297Z,11.08
2023-04-15T12:06:05.276Z,10.92
2023-04-15T12:08:07.951Z,10.86
2023-04-15T12:10:10.882Z,11.06
2023-04-15T12:12:13.612Z,11.33
2023-04-15T12:14:16.479Z,11.55
2023-04-15T12:16:20.877Z,11.74
2023-04-15T12:18:25.917Z,11.82
2023-04-15T12:20:31.553Z,11.68
2023-04-15T12:22:38.834Z,11.15
2023-04-15T12:24:48.234Z,11.02
2023-04-15T12:26:58.253Z,11.05
2023-04-15T12:29:08.689Z,10.89
2023-04-15T12:31:13.585Z,10.78
2023-04-15T12:33:16.370Z,11.21
2023-04-15T12:35:21.799Z,11.45
2023-04-15T12:37:24.661Z,12.07
2023-04-15T12:39:31.336Z,12.29
2023-04-15T12:41:34.520Z,12.61
2023-04-15T12:43:37.220Z,12.33
2023-04-15T12:45:40.022Z,12.22
2023-04-15T12:47:43.260Z,11.84
2023-04-15T12:49:46.183Z,11.52
2023-04-15T12:51:57.032Z,11.31
2023-04-15T12:54:02.559Z,11.28
2023-04-15T12:56:06.731Z,11.33
2023-04-15T12:58:09.360Z,11.68
2023-04-15T13:00:13.648Z,11.84
2023-04-15T13:02:16.439Z,12.25
2023-04-15T13:04:22.254Z,12.51
2023-04-15T13:06:27.130Z,12.76
2023-04-15T13:08:29.929Z,12.51
2023-04-15T13:10:33.459Z,12.73
2023-04-15T13:12:38.963Z,12.55
2023-04-15T13:14:41.641Z,12.75
2023-04-15T13:16:44.400Z,13.15
2023-04-15T13:18:47.207Z,13.43
2023-04-15T13:20:51.413Z,13.56
2023-04-15T13:22:54.704Z,13.62
2023-04-15T13:24:57.671Z,13.38
2023-04-15T13:27:01.596Z,13.41
2023-04-15T13:29:04.787Z,13.12
2023-04-15T13:31:07.531Z,12.91
2023-04-15T13:33:10.203Z,12.83
2023-04-15T13:35:12.851Z,12.58
2023-04-15T13:37:15.774Z,12.30
2023-04-15T13:39:18.481Z,12.15
2023-04-15T13:41:21.554Z,12.05
2023-04-15T13:43:24.297Z,12.84
2023-04-15T13:45:27.433Z,12.99
2023-04-15T13:47:30.701Z,12.82
2023-04-15T13:49:33.548Z,12.86
2023-04-15T13:51:37.714Z,13.30
2023-04-15T13:53:40.909Z,13.40
2023-04-15T13:55:43.846Z,13.67
2023-04-15T13:57:47.067Z,13.98
2023-04-15T13:59:49.963Z,13.73
2023-04-15T14:01:53.357Z,13.32
2023-04-15T14:03:56.750Z,12.77
2023-04-15T14:05:59.799Z,12.77
2023-04-15T14:08:02.791Z,12.98
2023-04-15T14:10:06.166Z,13.19
2023-04-15T14:12:08.997Z,13.11
2023-04-15T14:14:11.682Z,13.07
2023-04-15T14:16:14.451Z,13.04
2023-04-15T14:18:17.205Z,12.97
2023-04-15T14:20:20.072Z,12.75
2023-04-15T14:22:22.756Z,12.42
2023-04-15T14:24:25.572Z,12.78
2023-04-15T14:26:28.405Z,12.71
2023-04-15T14:28:32.337Z,12.61
2023-04-15T14:30:35.273Z,12.45
2023-04-15T14:32:38.414Z,12.20
2023-04-15T14:34:41.181Z,12.23
2023-04-15T14:36:44.661Z,12.21
2023-04-15T14:38:48.651Z,11.92
2023-04-15T14:40:51.628Z,11.88
2023-04-15T14:42:54.756Z,11.78
2023-04-15T14:44:57.519Z,11.54
2023-04-15T14:47:00.955Z,11.59
2023-04-15T14:49:04.049Z,11.56
2023-04-15T14:51:07.310Z,11.39
2023-04-15T14:53:09.968Z,11.29
2023-04-15T14:55:13.311Z,11.32
2023-04-15T14:57:16.429Z,11.19
2023-04-15T14:59:19.197Z,11.17
2023-04-15T15:01:22.154Z,11.00
2023-04-15T15:03:25.186Z,10.98
2023-04-15T15:05:28.404Z,10.96
2023-04-15T15:07:31.392Z,10.56
2023-04-15T15:09:35.021Z,10.27
2023-04-15T15:11:37.976Z,9.84
2023-04-15T15:13:40.955Z,9.38
2023-04-15T15:15:44.184Z,9.18
2023-04-15T15:17:47.477Z,8.87
2023-04-15T15:19:50.307Z,8.57
2023-04-15T15:21:53.089Z,8.46
2023-04-15T15:23:55.795Z,8.31
2023-04-15T15:25:59.104Z,8.18
2023-04-15T15:28:01.822Z,7.96
2023-04-15T15:30:04.880Z,7.88
2023-04-15T15:32:08.234Z,7.78
2023-04-15T15:34:10.980Z,7.69
2023-04-15T15:36:13.719Z,7.58
2023-04-15T15:38:16.692Z,7.44
2023-04-15T15:40:19.580Z,7.32
2023-04-15T15:42:23.788Z,7.24
2023-04-15T15:44:26.750Z,7.09
2023-04-15T15:46:31.649Z,7.06
2023-04-15T15:48:34.519Z,6.93
2023-04-15T15:50:37.726Z,6.86
2023-04-15T15:52:40.940Z,6.79
2023-04-15T15:54:43.644Z,6.69
2023-04-15T15:56:46.470Z,6.57
2023-04-15T15:58:49.445Z,6.55
2023-04-15T16:00:52.233Z,6.45
2023-04-15T16:03:06.895Z,6.40
2023-04-15T16:05:11.975Z,6.32
2023-04-15T16:07:16.047Z,6.24
2023-04-15T16:09:19.138Z,6.20
2023-04-15T16:11:21.941Z,6.10
2023-04-15T16:13:24.618Z,6.09
2023-04-15T16:15:27.496Z,6.01
2023-04-15T16:17:30.345Z,5.98
2023-04-15T16:19:33.072Z,5.93
2023-04-15T16:21:35.868Z,5.94
2023-04-15T16:23:38.672Z,5.92
2023-04-15T16:25:44.940Z,5.85
2023-04-15T16:28:00.851Z,5.80
2023-04-15T16:30:09.250Z,5.71
2023-04-15T16:32:12.095Z,5.65
2023-04-15T16:34:16.100Z,5.60
2023-04-15T16:36:18.901Z,5.59
2023-04-15T16:38:21.765Z,5.54
2023-04-15T16:40:25.169Z,5.47
2023-04-15T16:42:27.883Z,5.44
2023-04-15T16:44:30.981Z,5.40
2023-04-15T16:46:33.789Z,5.36
2023-04-15T16:48:36.551Z,5.32
2023-04-15T16:50:39.561Z,5.25
2023-04-15T16:52:42.362Z,5.20
2023-04-15T16:54:45.097Z,5.13
2023-04-15T16:56:47.880Z,5.11
2023-04-15T16:58:51.102Z,5.07
2023-04-15T17:00:53.966Z,5.06
2023-04-15T17:02:56.963Z,5.04
2023-04-15T17:04:59.958Z,4.97
2023-04-15T17:07:02.640Z,4.96
2023-04-15T17:09:05.611Z,4.88
2023-04-15T17:11:08.507Z,4.84
2023-04-15T17:13:11.264Z,4.79
2023-04-15T17:15:14.065Z,4.74
2023-04-15T17:17:23.550Z,4.73
2023-04-15T17:19:27.683Z,4.68
2023-04-15T17:21:42.785Z,4.63
2023-04-15T17:23:54.630Z,4.59
2023-04-15T17:25:57.317Z,4.52
2023-04-15T17:28:02.044Z,4.52
2023-04-15T17:30:08.587Z,4.50
2023-04-15T17:32:34.899Z,4.44
2023-04-15T17:34:57.700Z,4.40
2023-04-15T17:37:20.244Z,4.36
2023-04-15T17:39:43.280Z,4.33
2023-04-15T17:42:05.821Z,4.28
2023-04-15T17:44:28.362Z,4.24
2023-04-15T17:46:51.160Z,4.20
2023-04-15T17:49:13.844Z,4.14
2023-04-15T17:51:36.330Z,4.11
2023-04-15T17:53:58.820Z,4.06
2023-04-15T17:56:21.613Z,4.02
2023-04-15T17:58:44.212Z,4.00
2023-04-15T18:01:06.867Z,3.97
2023-04-15T18:03:29.634Z,3.91
2023-04-15T18:05:53.356Z,3.88
2023-04-15T18:08:17.112Z,3.67
2023-04-15T18:10:40.156Z,3.83
2023-04-15T18:13:03.651Z,3.81
2023-04-15T18:15:26.687Z,3.79
2023-04-15T18:17:50.962Z,3.78
2023-04-15T18:19:56.020Z,3.72
2023-04-15T18:22:00.968Z,3.74
2023-04-15T18:24:04.438Z,3.71
2023-04-15T18:26:07.478Z,3.75
2023-04-15T18:28:11.216Z,3.71
2023-04-15T18:30:14.217Z,3.72
2023-04-15T18:32:17.356Z,3.69
2023-04-15T18:34:20.305Z,3.71
2023-04-15T18:36:24.465Z,3.68
2023-04-15T18:38:27.186Z,3.68
2023-04-15T18:40:29.880Z,3.65
2023-04-15T18:42:32.660Z,3.66
2023-04-15T18:44:35.531Z,3.67
2023-04-15T18:46:38.290Z,3.66
2023-04-15T18:48:43.336Z,3.67
2023-04-15T18:50:46.187Z,3.66
2023-04-15T18:52:51.390Z,3.64
2023-04-15T18:54:54.413Z,3.68
2023-04-15T18:56:57.194Z,3.66
2023-04-15T18:59:25.005Z,3.68
2023-04-15T19:01:23.798Z,3.67
2023-04-15T19:03:26.581Z,3.64
2023-04-15T19:05:30.871Z,3.64
2023-04-15T19:07:33.641Z,3.57
2023-04-15T19:09:36.548Z,3.53
2023-04-15T19:11:39.338Z,3.54
2023-04-15T19:13:42.097Z,3.53
2023-04-15T19:15:44.902Z,3.55
2023-04-15T19:17:47.807Z,3.49
2023-04-15T19:19:50.947Z,3.48
2023-04-15T19:21:54.050Z,3.43
2023-04-15T19:23:57.922Z,3.37
2023-04-15T19:26:00.570Z,3.35
2023-04-15T19:28:03.461Z,3.36
2023-04-15T19:30:08.731Z,3.33
2023-04-15T19:32:11.502Z,3.28
2023-04-15T19:34:14.783Z,3.27
2023-04-15T19:36:18.575Z,3.25
2023-04-15T19:38:21.325Z,3.22
2023-04-15T19:40:24.385Z,3.23
2023-04-15T19:42:27.166Z,3.21
2023-04-15T19:44:29.980Z,3.20
2023-04-15T19:46:33.123Z,3.18
2023-04-15T19:48:37.525Z,3.15
2023-04-15T19:50:40.320Z,3.11
2023-04-15T19:52:43.033Z,3.08
2023-04-15T19:54:45.869Z,3.07
2023-04-15T19:56:48.837Z,3.01
2023-04-15T19:58:53.036Z,3.03
2023-04-15T20:00:57.017Z,2.98
2023-04-15T20:03:00.326Z,2.95
2023-04-15T20:05:03.400Z,2.94
2023-04-15T20:07:06.633Z,2.92
2023-04-15T20:09:11.295Z,2.91
2023-04-15T20:11:15.142Z,2.84
2023-04-15T20:13:18.059Z,2.89
2023-04-15T20:15:23.981Z,2.93
2023-04-15T20:17:27.314Z,2.93
2023-04-15T20:19:30.128Z,2.96
2023-04-15T20:21:32.967Z,2.91
2023-04-15T20:23:36.246Z,2.90
2023-04-15T20:25:38.989Z,2.89
2023-04-15T20:27:41.669Z,2.91
2023-04-15T20:29:44.465Z,2.88
2023-04-15T20:31:47.617Z,2.90
2023-04-15T20:33:50.564Z,2.88
2023-04-15T20:35:54.212Z,2.84
2023-04-15T20:37:57.173Z,2.82
2023-04-15T20:40:00.898Z,2.81
2023-04-15T20:42:03.844Z,2.80
2023-04-15T20:44:06.640Z,2.74
2023-04-15T20:46:20.520Z,2.77
2023-04-15T20:48:24.233Z,2.75
2023-04-15T20:50:27.297Z,2.77
2023-04-15T20:52:30.441Z,2.73
2023-04-15T20:54:33.620Z,2.72
2023-04-15T20:56:36.653Z,2.67
2023-04-15T20:58:39.580Z,2.61
2023-04-15T21:00:42.791Z,2.61
2023-04-15T21:02:46.202Z,2.57
2023-04-15T21:04:48.982Z,2.57
2023-04-15T21:06:52.473Z,2.56
2023-04-15T21:08:55.246Z,2.57
2023-04-15T21:10:58.143Z,2.62
2023-04-15T21:13:03.937Z,2.61
2023-04-15T21:15:07.786Z,2.63
2023-04-15T21:17:11.590Z,2.57
2023-04-15T21:19:14.538Z,2.56
2023-04-15T21:21:17.232Z,2.51
2023-04-15T21:23:19.954Z,2.43
2023-04-15T21:25:22.734Z,2.44
2023-04-15T21:27:26.300Z,2.42
2023-04-15T21:29:29.225Z,2.35
2023-04-15T21:31:31.950Z,2.35
2023-04-15T21:33:34.723Z,2.34
2023-04-15T21:35:37.571Z,2.32
2023-04-15T21:37:40.403Z,2.36
2023-04-15T21:39:43.044Z,2.36
2023-04-15T21:41:45.853Z,2.32
2023-04-15T21:43:48.690Z,2.30
2023-04-15T21:46:21.500Z,2.31
2023-04-15T21:48:15.097Z,2.31
2023-04-15T21:50:17.849Z,2.24
2023-04-15T21:52:20.683Z,2.26
2023-04-15T21:54:23.492Z,2.18
2023-04-15T21:56:27.031Z,2.17
2023-04-15T21:58:30.049Z,2.14
2023-04-15T22:00:32.920Z,2.07
2023-04-15T22:02:37.899Z,1.98
2023-04-15T22:04:40.895Z,1.99
2023-04-15T22:06:43.646Z,1.97
2023-04-15T22:08:56.286Z,1.93
2023-04-15T22:11:00.169Z,1.85
2023-04-15T22:13:07.228Z,1.80
2023-04-15T22:15:10.230Z,1.73
2023-04-15T22:17:12.979Z,1.67
2023-04-15T22:19:15.663Z,1.64
2023-04-15T22:21:18.372Z,1.60
2023-04-15T22:23:21.288Z,1.52
2023-04-15T22:25:24.407Z,1.44
2023-04-15T22:27:27.139Z,1.43
2023-04-15T22:29:30.323Z,1.38
2023-04-15T22:31:33.069Z,1.37
2023-04-15T22:33:35.987Z,1.32
2023-04-15T22:35:39.078Z,1.29
2023-04-15T22:37:42.239Z,1.28
2023-04-15T22:39:45.079Z,1.26
2023-04-15T22:41:47.884Z,1.23
2023-04-15T22:43:50.628Z,1.18
2023-04-15T22:45:55.230Z,1.15
2023-04-15T22:47:58.385Z,1.18
2023-04-15T22:50:01.134Z,1.21
2023-04-15T22:52:04.658Z,1.23
2023-04-15T22:54:07.395Z,1.31
2023-04-15T22:56:10.130Z,1.35
2023-04-15T22:58:13.119Z,1.38
2023-04-15T23:00:16.093Z,1.35
2023-04-15T23:02:19.115Z,1.38
2023-04-15T23:04:23.185Z,1.40
2023-04-15T23:06:30.032Z,1.42
2023-04-15T23:08:32.736Z,1.39
2023-04-15T23:10:36.580Z,1.40
2023-04-15T23:12:39.371Z,1.37
2023-04-15T23:14:42.177Z,1.32
2023-04-15T23:16:45.754Z,1.33
2023-04-15T23:18:48.596Z,1.33
2023-04-15T23:20:51.426Z,1.30
2023-04-15T23:22:54.137Z,1.30
2023-04-15T23:24:56.927Z,1.33
2023-04-15T23:26:59.781Z,1.34
2023-04-15T23:29:02.473Z,1.27
2023-04-15T23:31:05.366Z,1.22
2023-04-15T23:33:08.793Z,1.14
2023-04-15T23:35:11.474Z,1.25
2023-04-15T23:37:18.045Z,1.22
2023-04-15T23:39:21.066Z,1.21
2023-04-15T23:41:23.855Z,1.18
2023-04-15T23:43:26.722Z,1.15
2023-04-15T23:45:29.474Z,1.14
2023-04-15T23:47:32.202Z,1.13
2023-04-15T23:49:36.779Z,1.08
2023-04-15T23:51:39.537Z,1.07
2023-04-15T23:53:42.948Z,1.11
2023-04-15T23:55:45.773Z,1.11
2023-04-15T23:57:49.743Z,1.10
2023-04-15T23:59:53.553Z,1.12
